Terminal Aerodrome Forecast
Issued by NWS

Home | Current Version | Previous Version | Text Only | Print | Product List | Glossary On
Versions: 1 2 3 4 5 6 7 8 9 10 11 12 13 14 15 16 17 18 19 20 21 22 23 24
000
FTUS41 KPHI 300538
TAFPNE
TAF
KPNE 300538Z 3006/3106 02007KT P6SM FEW250
     FM301700 16005KT P6SM BKN250 PROB30 3104/3106 5SM -RA BKN040=

USA.gov is the U.S. government's official web portal to all federal, state and local government web resources and services.